Terminal Aerodrome Forecast
Issued by NWS

Home | Current Version | Previous Version | Text Only | Print | Product List | Glossary On
Versions: 1 2 3 4 5 6 7 8 9 10 11 12 13 14 15 16 17 18 19 20
123
FTUS44 KLZK 100536
TAFLIT
TAF
KLIT 100536Z 1006/1106 09003KT P6SM OVC050
     FM101600 12005KT P6SM SCT050 SCT250
     FM110000 14007KT P6SM SCT250=

USA.gov is the U.S. government's official web portal to all federal, state and local government web resources and services.